Kalijati, Indonesia

10:33 PM WIT on August 22, 2014 (GMT +0700)
Halim Perdanakus | Change Station
CLOSE
Current Station
Airport
Location: Halim Perdanakus,
Elevation: 85 ft
Nearby Weather Stations

Elev 85 ft 6.27 °S, 106.89 °E | Updated 5 hours ago

Scattered Clouds
Scattered Clouds
86 °F
Feels Like 92 °F
N
9
Wind Variable Wind from ESE

Today
High -- | Low -- °F
--% Chance of Precip.
Yesterday
High -- | Low -- °F
Precip. -- in
5:54 AM 5:50 PM
Waning Crescent, 8% visible
Pressure 29.80 in
Visibility 3.7 miles
Clouds Scattered Clouds 1700 ft
Heat Index 92 °F
Dew Point 72 °F
Humidity 62%
Rainfall 0.00 in
Snow Depth Not available.
UV 1 out of 12
Pollen Not available.
Air Quality Not available.
Flu Activity Not available.
METAR WIHH 221000Z 12008KT 6000 SCT017 30/22 Q1009 NOSIG

More Conditions Fewer Conditions

Pressure 29.80 in
Visibility 3.7 miles
Clouds Scattered Clouds 1700 ft
Heat Index 92 °F
Dew Point 72 °F
Humidity 62%
Rainfall 0.00 in
Snow Depth Not available.
UV 1 out of 12
Pollen Not available.
Air Quality Not available.
Flu Activity Not available.
METAR WIHH 221000Z 12008KT 6000 SCT017 30/22 Q1009 NOSIG

More Conditions Fewer Conditions

10-Day Weather Forecast

Almanac

Astronomy

Aug. 22, 2014 Rise Set
Actual Time 5:54 AM WIT 5:50 PM WIT
Civil Twilight 5:33 AM WIT 6:11 PM WIT
Nautical Twilight 5:08 AM WIT 6:36 PM WIT
Astronomical Twilight 4:44 AM WIT 7:00 PM WIT
Moon 3:11 AM WIT 3:17 PM WIT
Length of Visible Light 12h 38m
Length of Day
11h 55m
Tomorrow will be 0m 19s longer.
Waning Crescent, 8% of the Moon is Illuminated
Today
Waning Crescent
Aug 25
New
Sep 2
First Quarter
Sep 8
Full
Sep 15
Last Quarter

Today's Extremes

Country Highs Country Lows

Community

WunderPhotos

Upload Photos

1,746,188 photos uploaded!

WunderBlogs® & News

Nearby

Snow Depth

Not available.

Earthquake Activity

City Distance Mag. Time & Date
No recent earthquake activity has been reported nearby.
Minimum magnitude displayed is 2.5.

Coastal Water Temperatures

Place Temperature
No Stations Reporting

Nearby Weather Stations